Ely, NV

18:52 PDT le 30 juin 2015 (GMT -0700)
Ely | | Change Station
CLOSE
Current Station
Aéroport
Location: Ely,
Altitude: 6260 ft
Stations météo à proximité

Alt. 6260 ft 39.30 °N, 114.85 °W | Updated 59 minutes ago

Nuageux
Nuageux
78 ° F
Paraît 78 ° F
N
10
Vent Variable Vent de ESE

Aujourd'hui
Haut(e) -- | Bas -- ° F
--% Risque de précip.
Hier
Haut(e) -- | Bas -- ° F
Precip. -- pouce
5:15 AM 8:09 PM
Lune gibbeuse croissante, 99% visible
Pression 29.94 pouce
Visibilité 10.0 Miles terrestres
Nuages Couvert 10000 ft
Point de rosée 47 ° F
Humidité 33%
Précipitations 0.01 pouce
Profondeur de la couche neigeuse Non disponible.
UV 1 sur 12
Pollen 6.20 sur 12
Qualité de l'air Non disponible.
Flu Activity Sporadic
METAR KELY 010053Z AUTO 12009KT 10SM -RA OVC100 26/08 A3024 RMK AO2 PK WND 22026/0025 WSHFT 0025 LTG DSNT N AND NW RAB23 SLP137 P0000 T02560083

More Conditions Fewer Conditions

Pression 29.94 pouce
Visibilité 10.0 Miles terrestres
Nuages Couvert 10000 ft
Point de rosée 47 ° F
Humidité 33%
Précipitations 0.01 pouce
Profondeur de la couche neigeuse Non disponible.
UV 1 sur 12
Pollen 6.20 sur 12
Qualité de l'air Non disponible.
Flu Activity Sporadic
METAR KELY 010053Z AUTO 12009KT 10SM -RA OVC100 26/08 A3024 RMK AO2 PK WND 22026/0025 WSHFT 0025 LTG DSNT N AND NW RAB23 SLP137 P0000 T02560083

More Conditions Fewer Conditions

10-Day Weather Forecast

×

Almanac

Astronomie

Jun. 30, 2015 Lever Coucher
Temps réel
Crépuscule civil
Crépuscule nautique
Crépuscule astronomique
Lune
Durée de lumière visible
Longueur du jour
Tomorrow will be .
, % of the Moon is Illuminated

Extrêmes aujourd'hui

State Highs State Lows

Community

WunderPhotos

Upload Photos

1,834,088 Photos téléchargées !

WunderBlogs® & News

Nearby

Qualité de l'air

  Qualité de l'air Indice de la qualité de l'air Polluant
Not available.

Épaisseur de neige

Station Depth Altitude

Activité sismique

Ville Distance Mag. Time & Date
Minimum magnitude displayed is 2.5.

Températures des eaux côtières

Lieu Température

Stations

Stations météo à proximité

Emplacement de la station Température Refroidissement éolien Point de rosée Humidité Vent Precip. Alt. Mise à jour Type